sensor_id;sensor_type;location;lat;lon;timestamp;P1;durP1;ratioP1;P2;durP2;ratioP2
77544;SDS011;66672;50.328;7.610;2024-03-06T00:01:40;15.63;;;14.52;;
77544;SDS011;66672;50.328;7.610;2024-03-06T00:04:05;15.15;;;14.27;;
77544;SDS011;66672;50.328;7.610;2024-03-06T00:06:30;15.50;;;14.50;;
77544;SDS011;66672;50.328;7.610;2024-03-06T00:08:56;15.32;;;14.32;;
77544;SDS011;66672;50.328;7.610;2024-03-06T00:11:21;15.90;;;14.82;;
77544;SDS011;66672;50.328;7.610;2024-03-06T00:13:46;15.35;;;14.45;;
77544;SDS011;66672;50.328;7.610;2024-03-06T00:16:12;15.77;;;14.77;;
77544;SDS011;66672;50.328;7.610;2024-03-06T00:18:38;15.90;;;15.00;;
77544;SDS011;66672;50.328;7.610;2024-03-06T00:21:03;16.00;;;14.90;;
77544;SDS011;66672;50.328;7.610;2024-03-06T00:23:28;15.80;;;14.90;;
77544;SDS011;66672;50.328;7.610;2024-03-06T00:25:53;15.40;;;14.50;;
77544;SDS011;66672;50.328;7.610;2024-03-06T00:28:18;15.93;;;14.80;;
77544;SDS011;66672;50.328;7.610;2024-03-06T00:30:44;15.73;;;14.63;;
77544;SDS011;66672;50.328;7.610;2024-03-06T00:33:09;15.60;;;14.60;;
77544;SDS011;66672;50.328;7.610;2024-03-06T00:35:34;16.40;;;15.15;;
77544;SDS011;66672;50.328;7.610;2024-03-06T00:37:59;16.20;;;15.00;;
77544;SDS011;66672;50.328;7.610;2024-03-06T00:40:27;15.90;;;15.00;;
77544;SDS011;66672;50.328;7.610;2024-03-06T00:42:55;15.65;;;14.68;;
77544;SDS011;66672;50.328;7.610;2024-03-06T00:45:20;16.30;;;15.10;;
77544;SDS011;66672;50.328;7.610;2024-03-06T00:47:46;15.60;;;14.70;;
77544;SDS011;66672;50.328;7.610;2024-03-06T00:50:11;15.60;;;14.70;;
77544;SDS011;66672;50.328;7.610;2024-03-06T00:52:36;15.55;;;14.55;;
77544;SDS011;66672;50.328;7.610;2024-03-06T00:55:01;16.13;;;15.13;;
77544;SDS011;66672;50.328;7.610;2024-03-06T00:57:26;15.13;;;14.23;;
77544;SDS011;66672;50.328;7.610;2024-03-06T00:59:52;16.98;;;15.75;;
77544;SDS011;66672;50.328;7.610;2024-03-06T01:02:18;16.08;;;15.10;;
77544;SDS011;66672;50.328;7.610;2024-03-06T01:04:43;15.80;;;14.45;;
77544;SDS011;66672;50.328;7.610;2024-03-06T01:07:08;15.52;;;14.63;;
77544;SDS011;66672;50.328;7.610;2024-03-06T01:09:33;16.75;;;15.65;;
77544;SDS011;66672;50.328;7.610;2024-03-06T01:11:58;17.70;;;16.40;;
77544;SDS011;66672;50.328;7.610;2024-03-06T01:14:23;19.30;;;17.77;;
77544;SDS011;66672;50.328;7.610;2024-03-06T01:16:49;20.13;;;18.48;;
77544;SDS011;66672;50.328;7.610;2024-03-06T01:19:14;19.42;;;17.90;;
77544;SDS011;66672;50.328;7.610;2024-03-06T01:21:39;17.70;;;16.50;;
77544;SDS011;66672;50.328;7.610;2024-03-06T01:24:04;17.50;;;16.15;;
77544;SDS011;66672;50.328;7.610;2024-03-06T01:26:30;17.17;;;16.08;;
77544;SDS011;66672;50.328;7.610;2024-03-06T01:28:55;17.92;;;16.63;;
77544;SDS011;66672;50.328;7.610;2024-03-06T01:31:20;17.20;;;16.02;;
77544;SDS011;66672;50.328;7.610;2024-03-06T01:33:45;16.73;;;15.55;;
77544;SDS011;66672;50.328;7.610;2024-03-06T01:36:11;17.23;;;16.08;;
77544;SDS011;66672;50.328;7.610;2024-03-06T01:38:36;16.50;;;15.30;;
77544;SDS011;66672;50.328;7.610;2024-03-06T01:41:01;17.38;;;16.10;;
77544;SDS011;66672;50.328;7.610;2024-03-06T01:43:26;16.98;;;15.88;;
77544;SDS011;66672;50.328;7.610;2024-03-06T01:45:52;16.25;;;15.15;;
77544;SDS011;66672;50.328;7.610;2024-03-06T01:48:27;17.52;;;16.17;;
77544;SDS011;66672;50.328;7.610;2024-03-06T01:50:53;16.30;;;15.30;;
77544;SDS011;66672;50.328;7.610;2024-03-06T01:53:20;16.67;;;15.57;;
77544;SDS011;66672;50.328;7.610;2024-03-06T01:55:46;16.60;;;15.50;;
77544;SDS011;66672;50.328;7.610;2024-03-06T01:58:12;16.65;;;15.55;;
77544;SDS011;66672;50.328;7.610;2024-03-06T02:00:38;16.85;;;15.60;;
77544;SDS011;66672;50.328;7.610;2024-03-06T02:03:03;16.92;;;15.73;;
77544;SDS011;66672;50.328;7.610;2024-03-06T02:05:28;17.10;;;15.90;;
77544;SDS011;66672;50.328;7.610;2024-03-06T02:07:55;16.60;;;15.60;;
77544;SDS011;66672;50.328;7.610;2024-03-06T02:10:21;16.02;;;15.02;;
77544;SDS011;66672;50.328;7.610;2024-03-06T02:12:46;16.02;;;14.93;;
77544;SDS011;66672;50.328;7.610;2024-03-06T02:15:13;16.27;;;15.07;;
77544;SDS011;66672;50.328;7.610;2024-03-06T02:17:38;15.80;;;14.80;;
77544;SDS011;66672;50.328;7.610;2024-03-06T02:20:03;15.40;;;14.40;;
77544;SDS011;66672;50.328;7.610;2024-03-06T02:22:31;15.70;;;14.80;;
77544;SDS011;66672;50.328;7.610;2024-03-06T02:24:56;15.50;;;14.50;;
77544;SDS011;66672;50.328;7.610;2024-03-06T02:27:21;15.43;;;14.43;;
77544;SDS011;66672;50.328;7.610;2024-03-06T02:29:46;16.00;;;15.00;;
77544;SDS011;66672;50.328;7.610;2024-03-06T02:32:12;17.67;;;16.38;;
77544;SDS011;66672;50.328;7.610;2024-03-06T02:34:37;15.77;;;14.77;;
77544;SDS011;66672;50.328;7.610;2024-03-06T02:37:02;15.60;;;14.65;;
77544;SDS011;66672;50.328;7.610;2024-03-06T02:39:28;16.27;;;15.02;;
77544;SDS011;66672;50.328;7.610;2024-03-06T02:41:53;16.58;;;15.48;;
77544;SDS011;66672;50.328;7.610;2024-03-06T02:44:18;17.30;;;16.10;;
77544;SDS011;66672;50.328;7.610;2024-03-06T02:46:47;16.85;;;15.75;;
77544;SDS011;66672;50.328;7.610;2024-03-06T02:49:13;16.80;;;15.60;;
77544;SDS011;66672;50.328;7.610;2024-03-06T02:51:38;16.35;;;15.27;;
77544;SDS011;66672;50.328;7.610;2024-03-06T02:54:03;16.08;;;14.98;;
77544;SDS011;66672;50.328;7.610;2024-03-06T02:56:29;16.23;;;15.13;;
77544;SDS011;66672;50.328;7.610;2024-03-06T02:58:54;16.30;;;15.30;;
77544;SDS011;66672;50.328;7.610;2024-03-06T03:01:19;16.60;;;15.50;;
77544;SDS011;66672;50.328;7.610;2024-03-06T03:03:45;17.70;;;16.30;;
77544;SDS011;66672;50.328;7.610;2024-03-06T03:06:12;16.77;;;15.70;;
77544;SDS011;66672;50.328;7.610;2024-03-06T03:08:37;16.30;;;15.20;;
77544;SDS011;66672;50.328;7.610;2024-03-06T03:11:02;16.93;;;15.40;;
77544;SDS011;66672;50.328;7.610;2024-03-06T03:13:28;16.27;;;15.25;;
77544;SDS011;66672;50.328;7.610;2024-03-06T03:15:53;16.47;;;15.20;;
77544;SDS011;66672;50.328;7.610;2024-03-06T03:18:18;16.80;;;15.47;;
77544;SDS011;66672;50.328;7.610;2024-03-06T03:20:43;16.53;;;15.40;;
77544;SDS011;66672;50.328;7.610;2024-03-06T03:23:08;16.80;;;15.60;;
77544;SDS011;66672;50.328;7.610;2024-03-06T03:25:37;22.75;;;20.35;;
77544;SDS011;66672;50.328;7.610;2024-03-06T03:28:02;19.00;;;17.60;;
77544;SDS011;66672;50.328;7.610;2024-03-06T03:30:27;17.37;;;16.10;;
77544;SDS011;66672;50.328;7.610;2024-03-06T03:32:52;17.17;;;15.95;;
77544;SDS011;66672;50.328;7.610;2024-03-06T03:35:17;17.10;;;15.90;;
77544;SDS011;66672;50.328;7.610;2024-03-06T03:37:45;16.70;;;15.55;;
77544;SDS011;66672;50.328;7.610;2024-03-06T03:40:11;16.40;;;15.30;;
77544;SDS011;66672;50.328;7.610;2024-03-06T03:42:37;17.23;;;15.83;;
77544;SDS011;66672;50.328;7.610;2024-03-06T03:45:02;17.30;;;15.97;;
77544;SDS011;66672;50.328;7.610;2024-03-06T03:47:28;17.40;;;16.00;;
77544;SDS011;66672;50.328;7.610;2024-03-06T03:49:53;18.10;;;16.67;;
77544;SDS011;66672;50.328;7.610;2024-03-06T03:52:18;33.17;;;18.17;;
77544;SDS011;66672;50.328;7.610;2024-03-06T03:54:43;18.60;;;16.90;;
77544;SDS011;66672;50.328;7.610;2024-03-06T03:57:09;28.03;;;17.70;;
77544;SDS011;66672;50.328;7.610;2024-03-06T03:59:34;20.00;;;18.23;;
77544;SDS011;66672;50.328;7.610;2024-03-06T04:02:02;18.70;;;17.13;;
77544;SDS011;66672;50.328;7.610;2024-03-06T04:04:27;17.70;;;16.50;;
77544;SDS011;66672;50.328;7.610;2024-03-06T04:06:54;17.93;;;16.50;;
77544;SDS011;66672;50.328;7.610;2024-03-06T04:09:19;19.87;;;17.80;;
77544;SDS011;66672;50.328;7.610;2024-03-06T04:11:44;20.83;;;18.37;;
77544;SDS011;66672;50.328;7.610;2024-03-06T04:14:10;30.77;;;20.00;;
77544;SDS011;66672;50.328;7.610;2024-03-06T04:16:35;107.63;;;25.70;;
77544;SDS011;66672;50.328;7.610;2024-03-06T04:19:01;48.90;;;21.03;;
77544;SDS011;66672;50.328;7.610;2024-03-06T04:21:26;26.27;;;19.07;;
77544;SDS011;66672;50.328;7.610;2024-03-06T04:23:51;43.53;;;21.77;;
77544;SDS011;66672;50.328;7.610;2024-03-06T04:26:16;22.00;;;19.70;;
77544;SDS011;66672;50.328;7.610;2024-03-06T04:28:42;53.83;;;21.47;;
77544;SDS011;66672;50.328;7.610;2024-03-06T04:31:07;22.43;;;18.67;;
77544;SDS011;66672;50.328;7.610;2024-03-06T04:33:33;18.83;;;17.33;;
77544;SDS011;66672;50.328;7.610;2024-03-06T04:36:00;36.13;;;19.93;;
77544;SDS011;66672;50.328;7.610;2024-03-06T04:38:25;21.83;;;18.27;;
77544;SDS011;66672;50.328;7.610;2024-03-06T04:40:50;20.13;;;18.43;;
77544;SDS011;66672;50.328;7.610;2024-03-06T04:43:15;23.87;;;19.73;;
77544;SDS011;66672;50.328;7.610;2024-03-06T04:45:40;38.57;;;20.60;;
77544;SDS011;66672;50.328;7.610;2024-03-06T04:48:06;51.20;;;20.53;;
77544;SDS011;66672;50.328;7.610;2024-03-06T04:50:32;29.03;;;20.17;;
77544;SDS011;66672;50.328;7.610;2024-03-06T04:52:57;19.80;;;18.10;;
77544;SDS011;66672;50.328;7.610;2024-03-06T04:55:23;56.47;;;21.07;;
77544;SDS011;66672;50.328;7.610;2024-03-06T04:57:52;41.53;;;20.13;;
77544;SDS011;66672;50.328;7.610;2024-03-06T05:00:17;39.53;;;20.13;;
77544;SDS011;66672;50.328;7.610;2024-03-06T05:02:43;74.07;;;22.10;;
77544;SDS011;66672;50.328;7.610;2024-03-06T05:05:08;29.97;;;19.90;;
77544;SDS011;66672;50.328;7.610;2024-03-06T05:07:34;53.28;;;20.98;;
77544;SDS011;66672;50.328;7.610;2024-03-06T05:09:59;59.23;;;21.20;;
77544;SDS011;66672;50.328;7.610;2024-03-06T05:12:24;30.07;;;20.43;;
77544;SDS011;66672;50.328;7.610;2024-03-06T05:14:50;46.90;;;21.27;;
77544;SDS011;66672;50.328;7.610;2024-03-06T05:17:15;22.70;;;19.67;;
77544;SDS011;66672;50.328;7.610;2024-03-06T05:19:40;93.20;;;22.70;;
77544;SDS011;66672;50.328;7.610;2024-03-06T05:22:05;35.47;;;18.87;;
77544;SDS011;66672;50.328;7.610;2024-03-06T05:24:31;56.87;;;22.00;;
77544;SDS011;66672;50.328;7.610;2024-03-06T05:26:56;21.43;;;19.13;;
77544;SDS011;66672;50.328;7.610;2024-03-06T05:29:21;62.78;;;24.23;;
77544;SDS011;66672;50.328;7.610;2024-03-06T05:31:46;24.90;;;19.77;;
77544;SDS011;66672;50.328;7.610;2024-03-06T05:34:11;20.53;;;18.53;;
77544;SDS011;66672;50.328;7.610;2024-03-06T05:36:37;21.00;;;19.00;;
77544;SDS011;66672;50.328;7.610;2024-03-06T05:39:02;22.48;;;20.38;;
77544;SDS011;66672;50.328;7.610;2024-03-06T05:41:37;69.80;;;22.20;;
77544;SDS011;66672;50.328;7.610;2024-03-06T05:44:02;32.15;;;20.83;;
77544;SDS011;66672;50.328;7.610;2024-03-06T05:46:29;22.92;;;18.80;;
77544;SDS011;66672;50.328;7.610;2024-03-06T05:48:54;32.70;;;20.63;;
77544;SDS011;66672;50.328;7.610;2024-03-06T05:51:19;20.80;;;18.90;;
77544;SDS011;66672;50.328;7.610;2024-03-06T05:53:44;20.50;;;18.57;;
77544;SDS011;66672;50.328;7.610;2024-03-06T05:56:10;21.92;;;18.67;;
77544;SDS011;66672;50.328;7.610;2024-03-06T05:58:35;19.73;;;18.23;;
77544;SDS011;66672;50.328;7.610;2024-03-06T06:01:01;19.47;;;17.83;;
77544;SDS011;66672;50.328;7.610;2024-03-06T06:03:26;20.30;;;18.60;;
77544;SDS011;66672;50.328;7.610;2024-03-06T06:05:53;19.17;;;17.53;;
77544;SDS011;66672;50.328;7.610;2024-03-06T06:08:18;19.90;;;18.20;;
77544;SDS011;66672;50.328;7.610;2024-03-06T06:10:43;20.40;;;18.60;;
77544;SDS011;66672;50.328;7.610;2024-03-06T06:13:09;19.77;;;18.17;;
77544;SDS011;66672;50.328;7.610;2024-03-06T06:15:34;41.73;;;20.13;;
77544;SDS011;66672;50.328;7.610;2024-03-06T06:17:59;20.80;;;18.67;;
77544;SDS011;66672;50.328;7.610;2024-03-06T06:20:24;20.20;;;18.47;;
77544;SDS011;66672;50.328;7.610;2024-03-06T06:22:49;21.30;;;19.00;;
77544;SDS011;66672;50.328;7.610;2024-03-06T06:25:15;21.30;;;19.10;;
77544;SDS011;66672;50.328;7.610;2024-03-06T06:27:41;20.77;;;18.77;;
77544;SDS011;66672;50.328;7.610;2024-03-06T06:30:06;21.53;;;19.40;;
77544;SDS011;66672;50.328;7.610;2024-03-06T06:32:36;21.00;;;19.20;;
77544;SDS011;66672;50.328;7.610;2024-03-06T06:35:01;22.10;;;19.10;;
77544;SDS011;66672;50.328;7.610;2024-03-06T06:37:26;20.67;;;18.77;;
77544;SDS011;66672;50.328;7.610;2024-03-06T06:39:51;21.87;;;19.63;;
77544;SDS011;66672;50.328;7.610;2024-03-06T06:42:17;20.63;;;18.73;;
77544;SDS011;66672;50.328;7.610;2024-03-06T06:44:42;21.90;;;19.40;;
77544;SDS011;66672;50.328;7.610;2024-03-06T06:47:07;30.60;;;19.77;;
77544;SDS011;66672;50.328;7.610;2024-03-06T06:49:32;21.00;;;19.13;;
77544;SDS011;66672;50.328;7.610;2024-03-06T06:51:59;21.80;;;19.47;;
77544;SDS011;66672;50.328;7.610;2024-03-06T06:54:24;20.77;;;18.88;;
77544;SDS011;66672;50.328;7.610;2024-03-06T06:56:49;21.97;;;20.07;;
77544;SDS011;66672;50.328;7.610;2024-03-06T06:59:14;21.20;;;19.30;;
77544;SDS011;66672;50.328;7.610;2024-03-06T07:01:40;20.77;;;18.87;;
77544;SDS011;66672;50.328;7.610;2024-03-06T07:04:06;20.90;;;18.80;;
77544;SDS011;66672;50.328;7.610;2024-03-06T07:06:31;20.27;;;18.27;;
77544;SDS011;66672;50.328;7.610;2024-03-06T07:08:57;20.90;;;19.03;;
77544;SDS011;66672;50.328;7.610;2024-03-06T07:11:22;24.10;;;19.63;;
77544;SDS011;66672;50.328;7.610;2024-03-06T07:13:48;20.40;;;18.60;;
77544;SDS011;66672;50.328;7.610;2024-03-06T07:16:13;20.63;;;18.83;;
77544;SDS011;66672;50.328;7.610;2024-03-06T07:18:39;21.57;;;19.23;;
77544;SDS011;66672;50.328;7.610;2024-03-06T07:21:04;35.10;;;20.70;;
77544;SDS011;66672;50.328;7.610;2024-03-06T07:23:30;22.50;;;19.50;;
77544;SDS011;66672;50.328;7.610;2024-03-06T07:25:55;20.80;;;19.00;;
77544;SDS011;66672;50.328;7.610;2024-03-06T07:28:22;22.63;;;20.23;;
77544;SDS011;66672;50.328;7.610;2024-03-06T07:30:47;21.20;;;19.30;;
77544;SDS011;66672;50.328;7.610;2024-03-06T07:33:12;20.67;;;18.87;;
77544;SDS011;66672;50.328;7.610;2024-03-06T07:35:38;21.23;;;19.13;;
77544;SDS011;66672;50.328;7.610;2024-03-06T07:38:04;20.80;;;18.97;;
77544;SDS011;66672;50.328;7.610;2024-03-06T07:40:30;31.40;;;19.88;;
77544;SDS011;66672;50.328;7.610;2024-03-06T07:42:56;21.47;;;19.37;;
77544;SDS011;66672;50.328;7.610;2024-03-06T07:45:21;20.60;;;18.80;;
77544;SDS011;66672;50.328;7.610;2024-03-06T07:47:46;21.57;;;18.97;;
77544;SDS011;66672;50.328;7.610;2024-03-06T07:50:13;20.37;;;18.47;;
77544;SDS011;66672;50.328;7.610;2024-03-06T07:52:43;24.73;;;19.20;;
77544;SDS011;66672;50.328;7.610;2024-03-06T07:55:10;21.80;;;19.80;;
77544;SDS011;66672;50.328;7.610;2024-03-06T07:57:35;23.83;;;19.93;;
77544;SDS011;66672;50.328;7.610;2024-03-06T08:00:00;21.50;;;19.23;;
77544;SDS011;66672;50.328;7.610;2024-03-06T08:02:25;22.50;;;20.20;;
77544;SDS011;66672;50.328;7.610;2024-03-06T08:04:50;21.60;;;19.70;;
77544;SDS011;66672;50.328;7.610;2024-03-06T08:07:15;21.07;;;18.97;;
77544;SDS011;66672;50.328;7.610;2024-03-06T08:09:41;22.60;;;20.17;;
77544;SDS011;66672;50.328;7.610;2024-03-06T08:12:06;22.07;;;19.93;;
77544;SDS011;66672;50.328;7.610;2024-03-06T08:14:31;21.40;;;19.40;;
77544;SDS011;66672;50.328;7.610;2024-03-06T08:16:56;21.87;;;19.73;;
77544;SDS011;66672;50.328;7.610;2024-03-06T08:19:22;22.00;;;19.30;;
77544;SDS011;66672;50.328;7.610;2024-03-06T08:21:49;21.03;;;19.13;;
77544;SDS011;66672;50.328;7.610;2024-03-06T08:24:15;22.77;;;20.43;;
77544;SDS011;66672;50.328;7.610;2024-03-06T08:26:42;22.30;;;20.10;;
77544;SDS011;66672;50.328;7.610;2024-03-06T08:29:07;22.37;;;20.10;;
77544;SDS011;66672;50.328;7.610;2024-03-06T08:31:32;22.50;;;20.50;;
77544;SDS011;66672;50.328;7.610;2024-03-06T08:33:57;21.70;;;19.60;;
77544;SDS011;66672;50.328;7.610;2024-03-06T08:36:23;20.97;;;19.00;;
77544;SDS011;66672;50.328;7.610;2024-03-06T08:38:49;22.00;;;19.90;;
77544;SDS011;66672;50.328;7.610;2024-03-06T08:41:14;21.58;;;19.42;;
77544;SDS011;66672;50.328;7.610;2024-03-06T08:43:39;22.53;;;20.27;;
77544;SDS011;66672;50.328;7.610;2024-03-06T08:46:05;22.23;;;20.13;;
77544;SDS011;66672;50.328;7.610;2024-03-06T08:48:30;21.50;;;19.40;;
77544;SDS011;66672;50.328;7.610;2024-03-06T08:50:55;21.77;;;19.77;;
77544;SDS011;66672;50.328;7.610;2024-03-06T08:53:20;21.13;;;19.30;;
77544;SDS011;66672;50.328;7.610;2024-03-06T08:55:46;20.97;;;19.20;;
77544;SDS011;66672;50.328;7.610;2024-03-06T08:58:12;21.00;;;19.00;;
77544;SDS011;66672;50.328;7.610;2024-03-06T09:00:39;20.73;;;18.63;;
77544;SDS011;66672;50.328;7.610;2024-03-06T09:03:04;21.83;;;19.87;;
77544;SDS011;66672;50.328;7.610;2024-03-06T09:05:30;22.25;;;20.15;;
77544;SDS011;66672;50.328;7.610;2024-03-06T09:07:55;21.77;;;19.73;;
77544;SDS011;66672;50.328;7.610;2024-03-06T09:10:22;21.17;;;19.17;;
77544;SDS011;66672;50.328;7.610;2024-03-06T09:12:47;22.07;;;19.97;;
77544;SDS011;66672;50.328;7.610;2024-03-06T09:15:14;21.33;;;19.23;;
77544;SDS011;66672;50.328;7.610;2024-03-06T09:17:39;22.63;;;20.45;;
77544;SDS011;66672;50.328;7.610;2024-03-06T09:20:05;22.10;;;19.98;;
77544;SDS011;66672;50.328;7.610;2024-03-06T09:22:35;21.60;;;19.70;;
77544;SDS011;66672;50.328;7.610;2024-03-06T09:25:01;21.33;;;19.47;;
77544;SDS011;66672;50.328;7.610;2024-03-06T09:27:26;22.43;;;20.10;;
77544;SDS011;66672;50.328;7.610;2024-03-06T09:29:52;23.03;;;20.97;;
77544;SDS011;66672;50.328;7.610;2024-03-06T09:32:17;22.27;;;20.03;;
77544;SDS011;66672;50.328;7.610;2024-03-06T09:34:44;22.83;;;20.75;;
77544;SDS011;66672;50.328;7.610;2024-03-06T09:37:09;23.73;;;21.33;;
77544;SDS011;66672;50.328;7.610;2024-03-06T09:39:34;22.08;;;20.15;;
77544;SDS011;66672;50.328;7.610;2024-03-06T09:42:00;22.98;;;20.77;;
77544;SDS011;66672;50.328;7.610;2024-03-06T09:44:26;22.90;;;20.67;;
77544;SDS011;66672;50.328;7.610;2024-03-06T09:46:52;23.40;;;21.15;;
77544;SDS011;66672;50.328;7.610;2024-03-06T09:49:18;24.60;;;22.13;;
77544;SDS011;66672;50.328;7.610;2024-03-06T09:51:44;23.80;;;21.60;;
77544;SDS011;66672;50.328;7.610;2024-03-06T09:54:14;24.35;;;21.95;;
77544;SDS011;66672;50.328;7.610;2024-03-06T09:56:41;23.73;;;21.08;;
77544;SDS011;66672;50.328;7.610;2024-03-06T09:59:08;24.33;;;21.92;;
77544;SDS011;66672;50.328;7.610;2024-03-06T10:01:33;23.98;;;21.73;;
77544;SDS011;66672;50.328;7.610;2024-03-06T10:04:00;26.05;;;23.65;;
77544;SDS011;66672;50.328;7.610;2024-03-06T10:06:42;25.52;;;22.95;;
77544;SDS011;66672;50.328;7.610;2024-03-06T10:09:09;24.40;;;22.20;;
77544;SDS011;66672;50.328;7.610;2024-03-06T10:11:38;25.67;;;23.30;;
77544;SDS011;66672;50.328;7.610;2024-03-06T10:14:03;24.00;;;21.67;;
77544;SDS011;66672;50.328;7.610;2024-03-06T10:16:28;22.77;;;20.48;;
77544;SDS011;66672;50.328;7.610;2024-03-06T10:18:54;24.63;;;22.33;;
77544;SDS011;66672;50.328;7.610;2024-03-06T10:21:28;24.85;;;22.45;;
77544;SDS011;66672;50.328;7.610;2024-03-06T10:23:57;23.90;;;21.45;;
77544;SDS011;66672;50.328;7.610;2024-03-06T10:26:22;25.23;;;22.50;;
77544;SDS011;66672;50.328;7.610;2024-03-06T10:28:49;25.02;;;22.15;;
77544;SDS011;66672;50.328;7.610;2024-03-06T10:31:26;24.48;;;21.98;;
77544;SDS011;66672;50.328;7.610;2024-03-06T10:33:51;24.27;;;21.88;;
77544;SDS011;66672;50.328;7.610;2024-03-06T10:36:18;28.75;;;23.90;;
77544;SDS011;66672;50.328;7.610;2024-03-06T10:38:43;25.85;;;23.38;;
77544;SDS011;66672;50.328;7.610;2024-03-06T10:41:10;26.30;;;23.70;;
77544;SDS011;66672;50.328;7.610;2024-03-06T10:43:38;24.83;;;22.52;;
77544;SDS011;66672;50.328;7.610;2024-03-06T10:46:05;26.88;;;24.27;;
77544;SDS011;66672;50.328;7.610;2024-03-06T10:48:31;24.40;;;22.02;;
77544;SDS011;66672;50.328;7.610;2024-03-06T10:50:57;26.45;;;23.92;;
77544;SDS011;66672;50.328;7.610;2024-03-06T10:53:24;25.13;;;22.65;;
77544;SDS011;66672;50.328;7.610;2024-03-06T10:55:51;25.20;;;22.50;;
77544;SDS011;66672;50.328;7.610;2024-03-06T10:58:16;24.23;;;21.90;;
77544;SDS011;66672;50.328;7.610;2024-03-06T11:00:47;24.85;;;22.55;;
77544;SDS011;66672;50.328;7.610;2024-03-06T11:03:12;25.30;;;22.60;;
77544;SDS011;66672;50.328;7.610;2024-03-06T11:05:38;25.48;;;22.98;;
77544;SDS011;66672;50.328;7.610;2024-03-06T11:08:05;25.27;;;22.77;;
77544;SDS011;66672;50.328;7.610;2024-03-06T11:10:33;24.77;;;22.25;;
77544;SDS011;66672;50.328;7.610;2024-03-06T11:12:58;25.58;;;22.90;;
77544;SDS011;66672;50.328;7.610;2024-03-06T11:15:23;24.80;;;22.38;;
77544;SDS011;66672;50.328;7.610;2024-03-06T11:17:49;24.67;;;22.08;;
77544;SDS011;66672;50.328;7.610;2024-03-06T11:20:17;25.50;;;22.80;;
77544;SDS011;66672;50.328;7.610;2024-03-06T11:23:01;25.17;;;22.58;;
77544;SDS011;66672;50.328;7.610;2024-03-06T11:28:22;24.65;;;22.35;;
77544;SDS011;66672;50.328;7.610;2024-03-06T11:30:48;25.10;;;22.73;;
77544;SDS011;66672;50.328;7.610;2024-03-06T11:33:19;24.92;;;22.63;;
77544;SDS011;66672;50.328;7.610;2024-03-06T11:38:29;25.65;;;23.02;;
77544;SDS011;66672;50.328;7.610;2024-03-06T11:40:54;25.65;;;23.02;;
77544;SDS011;66672;50.328;7.610;2024-03-06T11:43:26;25.95;;;23.35;;
77544;SDS011;66672;50.328;7.610;2024-03-06T11:45:52;28.42;;;24.20;;
77544;SDS011;66672;50.328;7.610;2024-03-06T11:48:17;26.13;;;23.52;;
77544;SDS011;66672;50.328;7.610;2024-03-06T11:50:45;27.55;;;24.33;;
77544;SDS011;66672;50.328;7.610;2024-03-06T11:53:10;27.75;;;24.83;;
77544;SDS011;66672;50.328;7.610;2024-03-06T11:55:36;27.35;;;24.58;;
77544;SDS011;66672;50.328;7.610;2024-03-06T11:58:04;26.30;;;23.70;;
77544;SDS011;66672;50.328;7.610;2024-03-06T12:00:30;25.60;;;23.08;;
77544;SDS011;66672;50.328;7.610;2024-03-06T12:02:55;26.42;;;23.85;;
77544;SDS011;66672;50.328;7.610;2024-03-06T12:05:21;25.95;;;23.25;;
77544;SDS011;66672;50.328;7.610;2024-03-06T12:07:53;25.77;;;23.20;;
77544;SDS011;66672;50.328;7.610;2024-03-06T12:10:19;25.52;;;23.02;;
77544;SDS011;66672;50.328;7.610;2024-03-06T12:12:44;24.48;;;22.08;;
77544;SDS011;66672;50.328;7.610;2024-03-06T12:15:10;25.48;;;22.88;;
77544;SDS011;66672;50.328;7.610;2024-03-06T12:17:43;24.42;;;21.98;;
77544;SDS011;66672;50.328;7.610;2024-03-06T12:20:11;25.13;;;22.83;;
77544;SDS011;66672;50.328;7.610;2024-03-06T12:22:43;24.55;;;22.42;;
77544;SDS011;66672;50.328;7.610;2024-03-06T12:25:08;26.20;;;23.70;;
77544;SDS011;66672;50.328;7.610;2024-03-06T12:27:33;25.77;;;23.17;;
77544;SDS011;66672;50.328;7.610;2024-03-06T12:29:59;25.85;;;23.17;;
77544;SDS011;66672;50.328;7.610;2024-03-06T12:32:24;25.17;;;22.63;;
77544;SDS011;66672;50.328;7.610;2024-03-06T12:34:57;25.52;;;23.15;;
77544;SDS011;66672;50.328;7.610;2024-03-06T12:37:29;26.90;;;24.17;;
77544;SDS011;66672;50.328;7.610;2024-03-06T12:39:58;22.50;;;20.50;;
77544;SDS011;66672;50.328;7.610;2024-03-06T12:42:23;21.67;;;19.60;;
77544;SDS011;66672;50.328;7.610;2024-03-06T12:44:49;21.15;;;19.25;;
77544;SDS011;66672;50.328;7.610;2024-03-06T12:47:14;20.60;;;18.80;;
77544;SDS011;66672;50.328;7.610;2024-03-06T12:49:40;21.38;;;19.52;;
77544;SDS011;66672;50.328;7.610;2024-03-06T12:52:05;21.95;;;19.95;;
77544;SDS011;66672;50.328;7.610;2024-03-06T12:54:30;21.00;;;19.27;;
77544;SDS011;66672;50.328;7.610;2024-03-06T12:56:55;21.17;;;19.38;;
77544;SDS011;66672;50.328;7.610;2024-03-06T12:59:22;19.58;;;18.05;;
77544;SDS011;66672;50.328;7.610;2024-03-06T13:01:50;20.38;;;18.63;;
77544;SDS011;66672;50.328;7.610;2024-03-06T13:04:15;19.70;;;18.10;;
77544;SDS011;66672;50.328;7.610;2024-03-06T13:06:40;18.70;;;17.20;;
77544;SDS011;66672;50.328;7.610;2024-03-06T13:09:06;19.25;;;17.85;;
77544;SDS011;66672;50.328;7.610;2024-03-06T13:11:34;19.05;;;17.63;;
77544;SDS011;66672;50.328;7.610;2024-03-06T13:13:59;19.65;;;18.15;;
77544;SDS011;66672;50.328;7.610;2024-03-06T13:16:26;20.85;;;19.25;;
77544;SDS011;66672;50.328;7.610;2024-03-06T13:18:51;19.50;;;17.83;;
77544;SDS011;66672;50.328;7.610;2024-03-06T13:21:17;19.92;;;18.33;;
77544;SDS011;66672;50.328;7.610;2024-03-06T13:23:42;20.40;;;18.70;;
77544;SDS011;66672;50.328;7.610;2024-03-06T13:26:07;20.63;;;19.08;;
77544;SDS011;66672;50.328;7.610;2024-03-06T13:28:33;19.88;;;18.35;;
77544;SDS011;66672;50.328;7.610;2024-03-06T13:30:58;19.48;;;18.08;;
77544;SDS011;66672;50.328;7.610;2024-03-06T13:33:23;19.38;;;17.88;;
77544;SDS011;66672;50.328;7.610;2024-03-06T13:35:52;19.73;;;18.23;;
77544;SDS011;66672;50.328;7.610;2024-03-06T13:38:18;20.45;;;18.75;;
77544;SDS011;66672;50.328;7.610;2024-03-06T13:40:44;19.80;;;18.27;;
77544;SDS011;66672;50.328;7.610;2024-03-06T13:43:09;19.63;;;17.95;;
77544;SDS011;66672;50.328;7.610;2024-03-06T13:45:34;18.80;;;17.40;;
77544;SDS011;66672;50.328;7.610;2024-03-06T13:47:59;18.42;;;17.00;;
77544;SDS011;66672;50.328;7.610;2024-03-06T13:50:24;19.42;;;17.50;;
77544;SDS011;66672;50.328;7.610;2024-03-06T13:52:53;17.88;;;16.67;;
77544;SDS011;66672;50.328;7.610;2024-03-06T13:55:18;20.10;;;18.30;;
77544;SDS011;66672;50.328;7.610;2024-03-06T13:57:43;18.38;;;16.98;;
77544;SDS011;66672;50.328;7.610;2024-03-06T14:00:09;18.27;;;16.98;;
77544;SDS011;66672;50.328;7.610;2024-03-06T14:02:38;18.30;;;16.88;;
77544;SDS011;66672;50.328;7.610;2024-03-06T14:05:03;18.58;;;17.15;;
77544;SDS011;66672;50.328;7.610;2024-03-06T14:07:28;18.83;;;17.42;;
77544;SDS011;66672;50.328;7.610;2024-03-06T14:09:53;18.52;;;16.92;;
77544;SDS011;66672;50.328;7.610;2024-03-06T14:12:19;18.98;;;17.58;;
77544;SDS011;66672;50.328;7.610;2024-03-06T14:14:44;18.75;;;17.35;;
77544;SDS011;66672;50.328;7.610;2024-03-06T14:17:12;18.17;;;16.88;;
77544;SDS011;66672;50.328;7.610;2024-03-06T14:19:37;18.08;;;16.77;;